sensor_id;sensor_type;location;lat;lon;timestamp;P1;durP1;ratioP1;P2;durP2;ratioP2
635;SDS011;302;50.206;8.196;2023-07-30T00:01:51;2.77;;;2.57;;
635;SDS011;302;50.206;8.196;2023-07-30T00:04:16;3.00;;;2.70;;
635;SDS011;302;50.206;8.196;2023-07-30T00:06:41;3.15;;;2.95;;
635;SDS011;302;50.206;8.196;2023-07-30T00:09:06;4.00;;;2.65;;
635;SDS011;302;50.206;8.196;2023-07-30T00:11:32;2.93;;;2.73;;
635;SDS011;302;50.206;8.196;2023-07-30T00:13:57;2.53;;;2.33;;
635;SDS011;302;50.206;8.196;2023-07-30T00:16:22;3.08;;;2.88;;
635;SDS011;302;50.206;8.196;2023-07-30T00:18:47;3.00;;;2.80;;
635;SDS011;302;50.206;8.196;2023-07-30T00:21:12;2.80;;;2.60;;
635;SDS011;302;50.206;8.196;2023-07-30T00:23:37;2.90;;;2.70;;
635;SDS011;302;50.206;8.196;2023-07-30T00:26:03;2.55;;;2.35;;
635;SDS011;302;50.206;8.196;2023-07-30T00:28:28;2.93;;;2.73;;
635;SDS011;302;50.206;8.196;2023-07-30T00:30:53;2.92;;;2.65;;
635;SDS011;302;50.206;8.196;2023-07-30T00:33:18;3.22;;;3.03;;
635;SDS011;302;50.206;8.196;2023-07-30T00:35:43;2.80;;;2.60;;
635;SDS011;302;50.206;8.196;2023-07-30T00:38:08;3.10;;;2.60;;
635;SDS011;302;50.206;8.196;2023-07-30T00:40:39;3.60;;;2.87;;
635;SDS011;302;50.206;8.196;2023-07-30T00:43:04;2.78;;;2.58;;
635;SDS011;302;50.206;8.196;2023-07-30T00:45:29;2.90;;;2.70;;
635;SDS011;302;50.206;8.196;2023-07-30T00:47:54;3.53;;;3.22;;
635;SDS011;302;50.206;8.196;2023-07-30T00:50:19;2.90;;;2.70;;
635;SDS011;302;50.206;8.196;2023-07-30T00:52:44;2.70;;;2.50;;
635;SDS011;302;50.206;8.196;2023-07-30T00:55:10;2.77;;;2.57;;
635;SDS011;302;50.206;8.196;2023-07-30T00:57:35;3.30;;;3.10;;
635;SDS011;302;50.206;8.196;2023-07-30T01:00:01;2.73;;;2.53;;
635;SDS011;302;50.206;8.196;2023-07-30T01:02:29;2.50;;;2.30;;
635;SDS011;302;50.206;8.196;2023-07-30T01:04:54;3.50;;;3.30;;
635;SDS011;302;50.206;8.196;2023-07-30T01:07:19;2.67;;;2.50;;
635;SDS011;302;50.206;8.196;2023-07-30T01:09:45;2.73;;;2.50;;
635;SDS011;302;50.206;8.196;2023-07-30T01:12:10;3.10;;;2.80;;
635;SDS011;302;50.206;8.196;2023-07-30T01:14:36;3.23;;;3.03;;
635;SDS011;302;50.206;8.196;2023-07-30T01:17:03;3.17;;;2.97;;
635;SDS011;302;50.206;8.196;2023-07-30T01:19:28;3.43;;;2.83;;
635;SDS011;302;50.206;8.196;2023-07-30T01:21:54;3.22;;;2.75;;
635;SDS011;302;50.206;8.196;2023-07-30T01:24:19;3.10;;;2.90;;
635;SDS011;302;50.206;8.196;2023-07-30T01:26:46;2.92;;;2.72;;
635;SDS011;302;50.206;8.196;2023-07-30T01:29:14;3.60;;;3.30;;
635;SDS011;302;50.206;8.196;2023-07-30T01:31:40;2.85;;;2.65;;
635;SDS011;302;50.206;8.196;2023-07-30T01:34:06;3.00;;;2.80;;
635;SDS011;302;50.206;8.196;2023-07-30T01:36:32;2.90;;;2.60;;
635;SDS011;302;50.206;8.196;2023-07-30T01:38:57;5.10;;;2.97;;
635;SDS011;302;50.206;8.196;2023-07-30T01:41:23;2.78;;;2.38;;
635;SDS011;302;50.206;8.196;2023-07-30T01:43:49;3.23;;;2.97;;
635;SDS011;302;50.206;8.196;2023-07-30T01:46:14;2.87;;;2.57;;
635;SDS011;302;50.206;8.196;2023-07-30T01:48:39;2.85;;;2.65;;
635;SDS011;302;50.206;8.196;2023-07-30T01:51:05;3.70;;;2.63;;
635;SDS011;302;50.206;8.196;2023-07-30T01:53:30;2.85;;;2.65;;
635;SDS011;302;50.206;8.196;2023-07-30T01:55:55;2.87;;;2.60;;
635;SDS011;302;50.206;8.196;2023-07-30T01:58:20;3.70;;;2.72;;
635;SDS011;302;50.206;8.196;2023-07-30T02:00:45;3.00;;;2.80;;
635;SDS011;302;50.206;8.196;2023-07-30T02:03:10;4.75;;;2.75;;
635;SDS011;302;50.206;8.196;2023-07-30T02:05:35;2.92;;;2.55;;
635;SDS011;302;50.206;8.196;2023-07-30T02:08:01;3.13;;;2.93;;
635;SDS011;302;50.206;8.196;2023-07-30T02:10:26;3.03;;;2.55;;
635;SDS011;302;50.206;8.196;2023-07-30T02:12:51;2.80;;;2.60;;
635;SDS011;302;50.206;8.196;2023-07-30T02:15:16;2.50;;;2.30;;
635;SDS011;302;50.206;8.196;2023-07-30T02:17:41;2.90;;;2.70;;
635;SDS011;302;50.206;8.196;2023-07-30T02:20:07;4.37;;;2.67;;
635;SDS011;302;50.206;8.196;2023-07-30T02:22:33;2.27;;;2.10;;
635;SDS011;302;50.206;8.196;2023-07-30T02:24:58;2.70;;;2.50;;
635;SDS011;302;50.206;8.196;2023-07-30T02:27:23;3.77;;;2.77;;
635;SDS011;302;50.206;8.196;2023-07-30T02:29:48;3.15;;;2.35;;
635;SDS011;302;50.206;8.196;2023-07-30T02:32:13;2.90;;;2.40;;
635;SDS011;302;50.206;8.196;2023-07-30T02:34:38;3.67;;;2.47;;
635;SDS011;302;50.206;8.196;2023-07-30T02:37:04;2.50;;;2.30;;
635;SDS011;302;50.206;8.196;2023-07-30T02:39:29;2.80;;;2.60;;
635;SDS011;302;50.206;8.196;2023-07-30T02:41:54;2.70;;;2.50;;
635;SDS011;302;50.206;8.196;2023-07-30T02:44:19;3.67;;;2.70;;
635;SDS011;302;50.206;8.196;2023-07-30T02:46:44;2.75;;;2.55;;
635;SDS011;302;50.206;8.196;2023-07-30T02:49:09;2.90;;;2.70;;
635;SDS011;302;50.206;8.196;2023-07-30T02:51:34;2.50;;;2.30;;
635;SDS011;302;50.206;8.196;2023-07-30T02:54:03;2.80;;;2.60;;
635;SDS011;302;50.206;8.196;2023-07-30T02:56:28;2.70;;;2.50;;
635;SDS011;302;50.206;8.196;2023-07-30T02:58:53;2.65;;;2.45;;
635;SDS011;302;50.206;8.196;2023-07-30T03:01:19;2.90;;;2.70;;
635;SDS011;302;50.206;8.196;2023-07-30T03:03:44;3.10;;;2.90;;
635;SDS011;302;50.206;8.196;2023-07-30T03:06:09;2.37;;;2.23;;
635;SDS011;302;50.206;8.196;2023-07-30T03:08:34;2.17;;;2.07;;
635;SDS011;302;50.206;8.196;2023-07-30T03:11:01;2.70;;;2.45;;
635;SDS011;302;50.206;8.196;2023-07-30T03:13:26;2.73;;;2.40;;
635;SDS011;302;50.206;8.196;2023-07-30T03:15:51;2.88;;;2.67;;
635;SDS011;302;50.206;8.196;2023-07-30T03:18:16;2.75;;;2.55;;
635;SDS011;302;50.206;8.196;2023-07-30T03:20:41;2.40;;;2.20;;
635;SDS011;302;50.206;8.196;2023-07-30T03:23:06;2.43;;;2.10;;
635;SDS011;302;50.206;8.196;2023-07-30T03:25:31;4.10;;;2.38;;
635;SDS011;302;50.206;8.196;2023-07-30T03:27:57;2.42;;;2.22;;
635;SDS011;302;50.206;8.196;2023-07-30T03:30:22;3.45;;;2.22;;
635;SDS011;302;50.206;8.196;2023-07-30T03:32:47;2.63;;;2.42;;
635;SDS011;302;50.206;8.196;2023-07-30T03:35:12;2.50;;;2.30;;
635;SDS011;302;50.206;8.196;2023-07-30T03:37:37;2.90;;;2.30;;
635;SDS011;302;50.206;8.196;2023-07-30T03:40:02;2.70;;;2.50;;
635;SDS011;302;50.206;8.196;2023-07-30T03:42:28;2.80;;;2.50;;
635;SDS011;302;50.206;8.196;2023-07-30T03:44:53;3.13;;;2.38;;
635;SDS011;302;50.206;8.196;2023-07-30T03:47:18;2.97;;;2.78;;
635;SDS011;302;50.206;8.196;2023-07-30T03:49:43;3.40;;;3.10;;
635;SDS011;302;50.206;8.196;2023-07-30T03:52:08;3.03;;;2.60;;
635;SDS011;302;50.206;8.196;2023-07-30T03:54:33;2.55;;;2.33;;
635;SDS011;302;50.206;8.196;2023-07-30T03:56:58;2.40;;;2.20;;
635;SDS011;302;50.206;8.196;2023-07-30T03:59:24;4.23;;;2.40;;
635;SDS011;302;50.206;8.196;2023-07-30T04:01:49;2.73;;;2.33;;
635;SDS011;302;50.206;8.196;2023-07-30T04:04:14;1.97;;;1.87;;
635;SDS011;302;50.206;8.196;2023-07-30T04:06:39;2.80;;;2.60;;
635;SDS011;302;50.206;8.196;2023-07-30T04:09:04;2.80;;;2.33;;
635;SDS011;302;50.206;8.196;2023-07-30T04:11:30;2.67;;;2.47;;
635;SDS011;302;50.206;8.196;2023-07-30T04:13:55;2.50;;;2.30;;
635;SDS011;302;50.206;8.196;2023-07-30T04:16:20;2.55;;;2.35;;
635;SDS011;302;50.206;8.196;2023-07-30T04:18:45;2.38;;;2.17;;
635;SDS011;302;50.206;8.196;2023-07-30T04:21:10;2.77;;;2.57;;
635;SDS011;302;50.206;8.196;2023-07-30T04:23:35;4.10;;;2.50;;
635;SDS011;302;50.206;8.196;2023-07-30T04:26:01;3.65;;;2.30;;
635;SDS011;302;50.206;8.196;2023-07-30T04:28:26;2.30;;;2.10;;
635;SDS011;302;50.206;8.196;2023-07-30T04:30:51;2.60;;;2.40;;
635;SDS011;302;50.206;8.196;2023-07-30T04:33:16;4.10;;;2.60;;
635;SDS011;302;50.206;8.196;2023-07-30T04:35:42;2.33;;;2.07;;
635;SDS011;302;50.206;8.196;2023-07-30T04:38:07;2.70;;;2.50;;
635;SDS011;302;50.206;8.196;2023-07-30T04:40:32;2.67;;;2.40;;
635;SDS011;302;50.206;8.196;2023-07-30T04:42:57;5.93;;;2.47;;
635;SDS011;302;50.206;8.196;2023-07-30T04:45:22;2.30;;;2.03;;
635;SDS011;302;50.206;8.196;2023-07-30T04:47:48;4.28;;;2.42;;
635;SDS011;302;50.206;8.196;2023-07-30T04:50:13;2.70;;;2.17;;
635;SDS011;302;50.206;8.196;2023-07-30T04:52:38;2.53;;;2.33;;
635;SDS011;302;50.206;8.196;2023-07-30T04:55:03;2.53;;;2.33;;
635;SDS011;302;50.206;8.196;2023-07-30T04:57:28;2.53;;;2.30;;
635;SDS011;302;50.206;8.196;2023-07-30T04:59:54;2.63;;;2.43;;
635;SDS011;302;50.206;8.196;2023-07-30T05:02:19;3.50;;;2.50;;
635;SDS011;302;50.206;8.196;2023-07-30T05:04:44;2.20;;;2.00;;
635;SDS011;302;50.206;8.196;2023-07-30T05:07:09;2.30;;;2.10;;
635;SDS011;302;50.206;8.196;2023-07-30T05:09:34;2.27;;;2.00;;
635;SDS011;302;50.206;8.196;2023-07-30T05:11:59;2.35;;;2.15;;
635;SDS011;302;50.206;8.196;2023-07-30T05:14:25;2.83;;;2.63;;
635;SDS011;302;50.206;8.196;2023-07-30T05:16:50;2.70;;;2.20;;
635;SDS011;302;50.206;8.196;2023-07-30T05:19:18;2.33;;;1.98;;
635;SDS011;302;50.206;8.196;2023-07-30T05:21:43;3.07;;;2.10;;
635;SDS011;302;50.206;8.196;2023-07-30T05:24:08;2.60;;;2.40;;
635;SDS011;302;50.206;8.196;2023-07-30T05:26:34;2.60;;;2.20;;
635;SDS011;302;50.206;8.196;2023-07-30T05:28:59;2.70;;;2.50;;
635;SDS011;302;50.206;8.196;2023-07-30T05:31:24;3.10;;;1.92;;
635;SDS011;302;50.206;8.196;2023-07-30T05:33:49;2.70;;;2.50;;
635;SDS011;302;50.206;8.196;2023-07-30T05:36:14;2.13;;;2.03;;
635;SDS011;302;50.206;8.196;2023-07-30T05:38:40;2.95;;;2.60;;
635;SDS011;302;50.206;8.196;2023-07-30T05:41:05;2.10;;;2.00;;
635;SDS011;302;50.206;8.196;2023-07-30T05:43:30;2.17;;;1.98;;
635;SDS011;302;50.206;8.196;2023-07-30T05:45:55;2.33;;;2.13;;
635;SDS011;302;50.206;8.196;2023-07-30T05:48:20;2.72;;;2.20;;
635;SDS011;302;50.206;8.196;2023-07-30T05:50:45;2.77;;;2.20;;
635;SDS011;302;50.206;8.196;2023-07-30T05:53:10;2.27;;;2.10;;
635;SDS011;302;50.206;8.196;2023-07-30T05:55:36;2.83;;;2.60;;
635;SDS011;302;50.206;8.196;2023-07-30T05:58:01;2.28;;;2.08;;
635;SDS011;302;50.206;8.196;2023-07-30T06:00:26;4.20;;;2.17;;
635;SDS011;302;50.206;8.196;2023-07-30T06:02:51;2.43;;;2.23;;
635;SDS011;302;50.206;8.196;2023-07-30T06:05:16;2.53;;;2.33;;
635;SDS011;302;50.206;8.196;2023-07-30T06:07:41;2.23;;;2.10;;
635;SDS011;302;50.206;8.196;2023-07-30T06:10:06;2.40;;;2.20;;
635;SDS011;302;50.206;8.196;2023-07-30T06:12:32;2.33;;;2.10;;
635;SDS011;302;50.206;8.196;2023-07-30T06:14:57;3.83;;;2.23;;
635;SDS011;302;50.206;8.196;2023-07-30T06:17:22;2.60;;;1.87;;
635;SDS011;302;50.206;8.196;2023-07-30T06:19:47;2.17;;;1.90;;
635;SDS011;302;50.206;8.196;2023-07-30T06:22:12;2.10;;;1.90;;
635;SDS011;302;50.206;8.196;2023-07-30T06:24:38;2.80;;;2.40;;
635;SDS011;302;50.206;8.196;2023-07-30T06:27:03;2.17;;;1.98;;
635;SDS011;302;50.206;8.196;2023-07-30T06:29:28;2.03;;;1.80;;
635;SDS011;302;50.206;8.196;2023-07-30T06:31:53;2.75;;;1.90;;
635;SDS011;302;50.206;8.196;2023-07-30T06:34:18;3.57;;;1.90;;
635;SDS011;302;50.206;8.196;2023-07-30T06:36:44;2.45;;;2.00;;
635;SDS011;302;50.206;8.196;2023-07-30T06:39:09;2.60;;;1.80;;
635;SDS011;302;50.206;8.196;2023-07-30T06:41:34;2.25;;;1.80;;
635;SDS011;302;50.206;8.196;2023-07-30T06:43:59;3.00;;;1.90;;
635;SDS011;302;50.206;8.196;2023-07-30T06:46:24;1.87;;;1.60;;
635;SDS011;302;50.206;8.196;2023-07-30T06:48:49;2.33;;;2.00;;
635;SDS011;302;50.206;8.196;2023-07-30T06:51:15;1.90;;;1.80;;
635;SDS011;302;50.206;8.196;2023-07-30T06:53:43;2.17;;;1.90;;
635;SDS011;302;50.206;8.196;2023-07-30T06:56:08;2.40;;;1.90;;
635;SDS011;302;50.206;8.196;2023-07-30T06:58:33;2.40;;;1.83;;
635;SDS011;302;50.206;8.196;2023-07-30T07:00:58;2.30;;;2.00;;
635;SDS011;302;50.206;8.196;2023-07-30T07:03:24;4.77;;;2.00;;
635;SDS011;302;50.206;8.196;2023-07-30T07:05:52;1.90;;;1.80;;
635;SDS011;302;50.206;8.196;2023-07-30T07:08:18;2.83;;;1.98;;
635;SDS011;302;50.206;8.196;2023-07-30T07:10:43;1.80;;;1.70;;
635;SDS011;302;50.206;8.196;2023-07-30T07:13:09;1.90;;;1.80;;
635;SDS011;302;50.206;8.196;2023-07-30T07:15:35;2.90;;;1.73;;
635;SDS011;302;50.206;8.196;2023-07-30T07:18:00;2.70;;;2.50;;
635;SDS011;302;50.206;8.196;2023-07-30T07:20:25;1.90;;;1.80;;
635;SDS011;302;50.206;8.196;2023-07-30T07:22:50;1.92;;;1.70;;
635;SDS011;302;50.206;8.196;2023-07-30T07:25:15;2.80;;;1.73;;
635;SDS011;302;50.206;8.196;2023-07-30T07:27:44;2.25;;;2.00;;
635;SDS011;302;50.206;8.196;2023-07-30T07:30:09;2.20;;;1.98;;
635;SDS011;302;50.206;8.196;2023-07-30T07:32:34;3.00;;;2.20;;
635;SDS011;302;50.206;8.196;2023-07-30T07:35:03;2.28;;;1.80;;
635;SDS011;302;50.206;8.196;2023-07-30T07:37:28;1.87;;;1.60;;
635;SDS011;302;50.206;8.196;2023-07-30T07:39:53;2.22;;;2.03;;
635;SDS011;302;50.206;8.196;2023-07-30T07:42:19;1.90;;;1.70;;
635;SDS011;302;50.206;8.196;2023-07-30T07:44:44;2.77;;;2.00;;
635;SDS011;302;50.206;8.196;2023-07-30T07:47:11;1.83;;;1.73;;
635;SDS011;302;50.206;8.196;2023-07-30T07:49:36;2.90;;;1.93;;
635;SDS011;302;50.206;8.196;2023-07-30T07:52:01;2.47;;;2.28;;
635;SDS011;302;50.206;8.196;2023-07-30T07:54:26;4.35;;;2.05;;
635;SDS011;302;50.206;8.196;2023-07-30T07:56:51;1.80;;;1.70;;
635;SDS011;302;50.206;8.196;2023-07-30T07:59:16;1.87;;;1.77;;
635;SDS011;302;50.206;8.196;2023-07-30T08:01:42;2.03;;;1.92;;
635;SDS011;302;50.206;8.196;2023-07-30T08:04:07;2.15;;;2.00;;
635;SDS011;302;50.206;8.196;2023-07-30T08:06:32;3.70;;;2.10;;
635;SDS011;302;50.206;8.196;2023-07-30T08:08:57;3.00;;;2.00;;
635;SDS011;302;50.206;8.196;2023-07-30T08:11:22;2.57;;;1.90;;
635;SDS011;302;50.206;8.196;2023-07-30T08:13:47;3.45;;;2.08;;
635;SDS011;302;50.206;8.196;2023-07-30T08:16:13;1.98;;;1.88;;
635;SDS011;302;50.206;8.196;2023-07-30T08:18:38;1.87;;;1.77;;
635;SDS011;302;50.206;8.196;2023-07-30T08:21:03;1.88;;;1.63;;
635;SDS011;302;50.206;8.196;2023-07-30T08:23:28;1.70;;;1.60;;
635;SDS011;302;50.206;8.196;2023-07-30T08:25:54;2.17;;;1.97;;
635;SDS011;302;50.206;8.196;2023-07-30T08:28:19;2.10;;;1.93;;
635;SDS011;302;50.206;8.196;2023-07-30T08:30:44;2.10;;;2.00;;
635;SDS011;302;50.206;8.196;2023-07-30T08:33:09;2.77;;;2.00;;
635;SDS011;302;50.206;8.196;2023-07-30T08:35:35;2.47;;;2.27;;
635;SDS011;302;50.206;8.196;2023-07-30T08:38:00;2.43;;;2.23;;
635;SDS011;302;50.206;8.196;2023-07-30T08:40:25;2.13;;;2.03;;
635;SDS011;302;50.206;8.196;2023-07-30T08:42:51;2.30;;;2.20;;
635;SDS011;302;50.206;8.196;2023-07-30T08:45:16;2.23;;;2.03;;
635;SDS011;302;50.206;8.196;2023-07-30T08:47:41;2.60;;;2.27;;
635;SDS011;302;50.206;8.196;2023-07-30T08:50:07;2.70;;;2.50;;
635;SDS011;302;50.206;8.196;2023-07-30T08:52:32;3.03;;;2.67;;
635;SDS011;302;50.206;8.196;2023-07-30T08:54:58;3.60;;;3.10;;
635;SDS011;302;50.206;8.196;2023-07-30T08:57:26;2.60;;;2.40;;
635;SDS011;302;50.206;8.196;2023-07-30T08:59:54;2.87;;;2.67;;
635;SDS011;302;50.206;8.196;2023-07-30T09:02:26;3.72;;;3.40;;
635;SDS011;302;50.206;8.196;2023-07-30T09:04:56;3.30;;;3.00;;
635;SDS011;302;50.206;8.196;2023-07-30T09:07:22;2.30;;;2.10;;
635;SDS011;302;50.206;8.196;2023-07-30T09:09:48;2.40;;;1.98;;
635;SDS011;302;50.206;8.196;2023-07-30T09:12:13;1.60;;;1.50;;
635;SDS011;302;50.206;8.196;2023-07-30T09:14:39;1.60;;;1.50;;
635;SDS011;302;50.206;8.196;2023-07-30T09:17:05;1.60;;;1.50;;
635;SDS011;302;50.206;8.196;2023-07-30T09:19:34;1.90;;;1.40;;
635;SDS011;302;50.206;8.196;2023-07-30T09:21:59;2.72;;;1.75;;
635;SDS011;302;50.206;8.196;2023-07-30T09:24:24;2.47;;;1.80;;
635;SDS011;302;50.206;8.196;2023-07-30T09:26:49;1.50;;;1.25;;
635;SDS011;302;50.206;8.196;2023-07-30T09:29:14;1.80;;;1.43;;
635;SDS011;302;50.206;8.196;2023-07-30T09:31:46;1.70;;;1.40;;
635;SDS011;302;50.206;8.196;2023-07-30T09:34:16;1.38;;;1.25;;
635;SDS011;302;50.206;8.196;2023-07-30T09:36:43;1.65;;;1.45;;
635;SDS011;302;50.206;8.196;2023-07-30T09:39:15;1.67;;;1.50;;
635;SDS011;302;50.206;8.196;2023-07-30T09:41:44;1.40;;;1.30;;
635;SDS011;302;50.206;8.196;2023-07-30T09:44:09;1.50;;;1.40;;
635;SDS011;302;50.206;8.196;2023-07-30T09:46:41;1.50;;;1.40;;
635;SDS011;302;50.206;8.196;2023-07-30T09:49:06;1.58;;;1.48;;
635;SDS011;302;50.206;8.196;2023-07-30T09:51:32;1.53;;;1.33;;
635;SDS011;302;50.206;8.196;2023-07-30T09:53:59;2.15;;;1.63;;
635;SDS011;302;50.206;8.196;2023-07-30T09:56:24;2.33;;;1.30;;
635;SDS011;302;50.206;8.196;2023-07-30T09:58:49;2.73;;;1.70;;
635;SDS011;302;50.206;8.196;2023-07-30T10:01:14;2.27;;;1.50;;
635;SDS011;302;50.206;8.196;2023-07-30T10:03:40;2.57;;;2.17;;
635;SDS011;302;50.206;8.196;2023-07-30T10:06:05;2.10;;;1.90;;
635;SDS011;302;50.206;8.196;2023-07-30T10:08:34;1.50;;;1.40;;
635;SDS011;302;50.206;8.196;2023-07-30T10:11:00;1.70;;;1.60;;
635;SDS011;302;50.206;8.196;2023-07-30T10:13:28;2.20;;;1.85;;
635;SDS011;302;50.206;8.196;2023-07-30T10:15:54;1.50;;;1.40;;
635;SDS011;302;50.206;8.196;2023-07-30T10:18:19;2.33;;;1.77;;
635;SDS011;302;50.206;8.196;2023-07-30T10:20:53;1.90;;;1.60;;
635;SDS011;302;50.206;8.196;2023-07-30T10:23:19;3.20;;;2.20;;
635;SDS011;302;50.206;8.196;2023-07-30T10:25:45;2.90;;;1.93;;
635;SDS011;302;50.206;8.196;2023-07-30T10:30:58;2.15;;;1.60;;
635;SDS011;302;50.206;8.196;2023-07-30T10:33:23;2.78;;;1.80;;
635;SDS011;302;50.206;8.196;2023-07-30T10:35:52;2.40;;;1.80;;
635;SDS011;302;50.206;8.196;2023-07-30T10:38:19;2.55;;;1.80;;
635;SDS011;302;50.206;8.196;2023-07-30T10:41:04;3.17;;;1.77;;
635;SDS011;302;50.206;8.196;2023-07-30T10:43:30;2.42;;;1.70;;
635;SDS011;302;50.206;8.196;2023-07-30T10:45:56;2.03;;;1.83;;
635;SDS011;302;50.206;8.196;2023-07-30T10:48:34;1.97;;;1.60;;
635;SDS011;302;50.206;8.196;2023-07-30T10:51:00;2.72;;;1.80;;
635;SDS011;302;50.206;8.196;2023-07-30T10:53:26;3.80;;;2.10;;
635;SDS011;302;50.206;8.196;2023-07-30T10:55:52;2.77;;;1.70;;
635;SDS011;302;50.206;8.196;2023-07-30T10:58:17;4.28;;;1.90;;
635;SDS011;302;50.206;8.196;2023-07-30T11:00:42;1.83;;;1.73;;
635;SDS011;302;50.206;8.196;2023-07-30T11:03:08;2.28;;;2.08;;
635;SDS011;302;50.206;8.196;2023-07-30T11:05:33;3.70;;;2.13;;
635;SDS011;302;50.206;8.196;2023-07-30T11:07:58;4.17;;;2.47;;
635;SDS011;302;50.206;8.196;2023-07-30T11:10:23;5.57;;;2.20;;
635;SDS011;302;50.206;8.196;2023-07-30T11:12:49;2.27;;;1.80;;
635;SDS011;302;50.206;8.196;2023-07-30T11:15:17;2.20;;;1.80;;
635;SDS011;302;50.206;8.196;2023-07-30T11:17:42;2.90;;;1.93;;
635;SDS011;302;50.206;8.196;2023-07-30T11:20:21;4.47;;;2.10;;
635;SDS011;302;50.206;8.196;2023-07-30T11:22:46;7.15;;;1.83;;
635;SDS011;302;50.206;8.196;2023-07-30T11:25:17;4.40;;;1.95;;
635;SDS011;302;50.206;8.196;2023-07-30T11:27:46;2.42;;;1.70;;
635;SDS011;302;50.206;8.196;2023-07-30T11:30:11;3.67;;;1.98;;
635;SDS011;302;50.206;8.196;2023-07-30T11:32:36;3.25;;;1.77;;
635;SDS011;302;50.206;8.196;2023-07-30T11:35:02;3.73;;;1.63;;
635;SDS011;302;50.206;8.196;2023-07-30T11:37:27;2.57;;;1.67;;
635;SDS011;302;50.206;8.196;2023-07-30T11:39:52;2.33;;;1.90;;
635;SDS011;302;50.206;8.196;2023-07-30T11:42:18;5.30;;;1.80;;
635;SDS011;302;50.206;8.196;2023-07-30T11:44:43;3.83;;;1.80;;
635;SDS011;302;50.206;8.196;2023-07-30T11:47:08;4.33;;;1.70;;
635;SDS011;302;50.206;8.196;2023-07-30T11:49:36;5.35;;;2.13;;
635;SDS011;302;50.206;8.196;2023-07-30T11:52:05;4.63;;;1.77;;
635;SDS011;302;50.206;8.196;2023-07-30T11:54:30;2.88;;;1.90;;
635;SDS011;302;50.206;8.196;2023-07-30T11:56:57;4.00;;;1.75;;
635;SDS011;302;50.206;8.196;2023-07-30T11:59:22;4.13;;;2.07;;
635;SDS011;302;50.206;8.196;2023-07-30T12:01:47;3.42;;;2.30;;
635;SDS011;302;50.206;8.196;2023-07-30T12:04:13;2.90;;;2.23;;
635;SDS011;302;50.206;8.196;2023-07-30T12:06:41;3.30;;;1.53;;
635;SDS011;302;50.206;8.196;2023-07-30T12:09:17;3.78;;;1.55;;
635;SDS011;302;50.206;8.196;2023-07-30T12:14:15;2.23;;;1.50;;
635;SDS011;302;50.206;8.196;2023-07-30T12:16:40;1.80;;;1.60;;
635;SDS011;302;50.206;8.196;2023-07-30T12:19:06;3.00;;;1.90;;
635;SDS011;302;50.206;8.196;2023-07-30T12:21:32;3.40;;;1.60;;
635;SDS011;302;50.206;8.196;2023-07-30T12:23:57;2.80;;;1.50;;
635;SDS011;302;50.206;8.196;2023-07-30T12:26:22;3.65;;;1.73;;
635;SDS011;302;50.206;8.196;2023-07-30T12:28:47;1.70;;;1.37;;
635;SDS011;302;50.206;8.196;2023-07-30T12:31:12;2.95;;;1.70;;
635;SDS011;302;50.206;8.196;2023-07-30T12:33:38;3.13;;;2.00;;
635;SDS011;302;50.206;8.196;2023-07-30T12:36:03;1.87;;;1.20;;
635;SDS011;302;50.206;8.196;2023-07-30T12:38:28;2.23;;;1.40;;
635;SDS011;302;50.206;8.196;2023-07-30T12:40:53;2.47;;;1.45;;
635;SDS011;302;50.206;8.196;2023-07-30T12:43:18;3.75;;;1.95;;
635;SDS011;302;50.206;8.196;2023-07-30T12:45:45;3.95;;;1.92;;
635;SDS011;302;50.206;8.196;2023-07-30T12:48:10;3.10;;;1.63;;
635;SDS011;302;50.206;8.196;2023-07-30T12:50:35;2.37;;;1.43;;
635;SDS011;302;50.206;8.196;2023-07-30T12:53:01;3.17;;;1.93;;
635;SDS011;302;50.206;8.196;2023-07-30T12:55:26;3.97;;;1.77;;
635;SDS011;302;50.206;8.196;2023-07-30T12:57:51;2.58;;;1.30;;
635;SDS011;302;50.206;8.196;2023-07-30T13:00:16;2.95;;;1.95;;
635;SDS011;302;50.206;8.196;2023-07-30T13:02:42;2.67;;;1.60;;
635;SDS011;302;50.206;8.196;2023-07-30T13:05:08;1.63;;;1.20;;
635;SDS011;302;50.206;8.196;2023-07-30T13:07:33;2.43;;;1.63;;
635;SDS011;302;50.206;8.196;2023-07-30T13:10:01;2.65;;;1.58;;
635;SDS011;302;50.206;8.196;2023-07-30T13:12:27;2.30;;;1.50;;
635;SDS011;302;50.206;8.196;2023-07-30T13:14:52;4.63;;;1.67;;
635;SDS011;302;50.206;8.196;2023-07-30T13:17:17;3.08;;;1.65;;
635;SDS011;302;50.206;8.196;2023-07-30T13:19:42;2.53;;;1.35;;
635;SDS011;302;50.206;8.196;2023-07-30T13:22:07;5.30;;;2.13;;
635;SDS011;302;50.206;8.196;2023-07-30T13:24:32;3.15;;;1.60;;
635;SDS011;302;50.206;8.196;2023-07-30T13:27:00;2.87;;;1.50;;
635;SDS011;302;50.206;8.196;2023-07-30T13:29:25;2.07;;;1.70;;
635;SDS011;302;50.206;8.196;2023-07-30T13:31:50;2.57;;;1.93;;
635;SDS011;302;50.206;8.196;2023-07-30T13:34:15;3.20;;;1.60;;
635;SDS011;302;50.206;8.196;2023-07-30T13:36:40;2.90;;;1.40;;
635;SDS011;302;50.206;8.196;2023-07-30T13:39:06;2.42;;;1.40;;
635;SDS011;302;50.206;8.196;2023-07-30T13:41:31;2.23;;;1.50;;
635;SDS011;302;50.206;8.196;2023-07-30T13:43:56;2.33;;;1.40;;
635;SDS011;302;50.206;8.196;2023-07-30T13:46:21;2.65;;;1.45;;
635;SDS011;302;50.206;8.196;2023-07-30T13:48:46;2.97;;;1.63;;
635;SDS011;302;50.206;8.196;2023-07-30T13:51:11;2.80;;;1.80;;
635;SDS011;302;50.206;8.196;2023-07-30T13:53:36;2.83;;;1.70;;
635;SDS011;302;50.206;8.196;2023-07-30T13:56:06;1.80;;;1.50;;
635;SDS011;302;50.206;8.196;2023-07-30T13:58:31;3.87;;;2.03;;
635;SDS011;302;50.206;8.196;2023-07-30T14:00:56;2.80;;;1.65;;
635;SDS011;302;50.206;8.196;2023-07-30T14:03:21;3.45;;;1.80;;
635;SDS011;302;50.206;8.196;2023-07-30T14:05:46;2.10;;;1.43;;
635;SDS011;302;50.206;8.196;2023-07-30T14:08:11;3.10;;;1.80;;
635;SDS011;302;50.206;8.196;2023-07-30T14:10:36;2.33;;;1.50;;
635;SDS011;302;50.206;8.196;2023-07-30T14:13:02;2.35;;;1.50;;
635;SDS011;302;50.206;8.196;2023-07-30T14:15:27;6.23;;;2.17;;
635;SDS011;302;50.206;8.196;2023-07-30T14:17:52;3.40;;;1.53;;
635;SDS011;302;50.206;8.196;2023-07-30T14:20:17;2.13;;;1.30;;
635;SDS011;302;50.206;8.196;2023-07-30T14:22:42;2.90;;;1.67;;
635;SDS011;302;50.206;8.196;2023-07-30T14:25:08;2.83;;;1.70;;
635;SDS011;302;50.206;8.196;2023-07-30T14:27:33;2.87;;;1.70;;
635;SDS011;302;50.206;8.196;2023-07-30T14:29:58;2.73;;;1.83;;
635;SDS011;302;50.206;8.196;2023-07-30T14:32:24;3.67;;;2.20;;
635;SDS011;302;50.206;8.196;2023-07-30T14:34:49;4.38;;;1.50;;
635;SDS011;302;50.206;8.196;2023-07-30T14:37:14;3.07;;;1.67;;
635;SDS011;302;50.206;8.196;2023-07-30T14:39:39;1.70;;;1.40;;
635;SDS011;302;50.206;8.196;2023-07-30T14:42:05;2.83;;;1.67;;
635;SDS011;302;50.206;8.196;2023-07-30T14:44:30;2.50;;;1.60;;
635;SDS011;302;50.206;8.196;2023-07-30T14:46:55;2.70;;;1.57;;
635;SDS011;302;50.206;8.196;2023-07-30T14:49:22;2.03;;;1.50;;
635;SDS011;302;50.206;8.196;2023-07-30T14:51:47;1.90;;;1.10;;
635;SDS011;302;50.206;8.196;2023-07-30T14:54:12;4.53;;;1.50;;
635;SDS011;302;50.206;8.196;2023-07-30T14:56:37;3.67;;;1.47;;
635;SDS011;302;50.206;8.196;2023-07-30T14:59:03;3.30;;;1.43;;
635;SDS011;302;50.206;8.196;2023-07-30T15:01:28;1.40;;;1.27;;
635;SDS011;302;50.206;8.196;2023-07-30T15:03:54;3.63;;;1.23;;
635;SDS011;302;50.206;8.196;2023-07-30T15:06:19;2.40;;;1.67;;
635;SDS011;302;50.206;8.196;2023-07-30T15:08:46;1.97;;;1.20;;
635;SDS011;302;50.206;8.196;2023-07-30T15:11:11;2.20;;;1.63;;
635;SDS011;302;50.206;8.196;2023-07-30T15:13:38;3.60;;;1.60;;
635;SDS011;302;50.206;8.196;2023-07-30T15:16:03;1.93;;;1.40;;
635;SDS011;302;50.206;8.196;2023-07-30T15:18:29;2.78;;;1.23;;
635;SDS011;302;50.206;8.196;2023-07-30T15:20:54;1.73;;;1.50;;
635;SDS011;302;50.206;8.196;2023-07-30T15:23:19;3.23;;;1.80;;
635;SDS011;302;50.206;8.196;2023-07-30T15:25:44;1.80;;;1.37;;
635;SDS011;302;50.206;8.196;2023-07-30T15:28:09;3.67;;;1.40;;
635;SDS011;302;50.206;8.196;2023-07-30T15:30:36;1.90;;;1.40;;
635;SDS011;302;50.206;8.196;2023-07-30T15:33:01;2.80;;;1.70;;
635;SDS011;302;50.206;8.196;2023-07-30T15:35:26;2.13;;;1.80;;
635;SDS011;302;50.206;8.196;2023-07-30T15:37:51;3.22;;;2.05;;
635;SDS011;302;50.206;8.196;2023-07-30T15:40:17;2.63;;;1.90;;